createdAt,value
2019-04-05T00:01:06.227Z,37.65
2019-04-05T00:03:32.445Z,36.49
2019-04-05T00:05:58.607Z,36.96
2019-04-05T00:08:24.785Z,36.42
2019-04-05T00:10:50.997Z,37.17
2019-04-05T00:13:17.188Z,37.51
2019-04-05T00:15:43.949Z,37.89
2019-04-05T00:18:10.160Z,36.84
2019-04-05T00:20:36.443Z,37.96
2019-04-05T00:23:02.612Z,37.18
2019-04-05T00:25:28.842Z,38.10
2019-04-05T00:27:55.031Z,39.72
2019-04-05T00:30:21.204Z,39.53
2019-04-05T00:32:47.412Z,38.38
2019-04-05T00:35:13.713Z,37.38
2019-04-05T00:37:39.865Z,36.28
2019-04-05T00:40:07.967Z,37.12
2019-04-05T00:42:34.261Z,37.25
2019-04-05T00:45:00.443Z,37.83
2019-04-05T00:47:26.770Z,36.50
2019-04-05T00:49:53.097Z,39.20
2019-04-05T00:52:19.277Z,37.40
2019-04-05T00:54:45.586Z,39.05
2019-04-05T00:57:11.870Z,38.89
2019-04-05T00:59:38.055Z,39.46
2019-04-05T01:02:04.460Z,39.59
2019-04-05T01:04:30.746Z,37.59
2019-04-05T01:06:56.904Z,37.42
2019-04-05T01:09:23.388Z,37.24
2019-04-05T01:11:58.797Z,36.64
2019-04-05T01:14:25.094Z,36.74
2019-04-05T01:16:51.262Z,37.52
2019-04-05T01:19:18.755Z,38.01
2019-04-05T01:21:47.072Z,38.55
2019-04-05T01:24:13.953Z,37.63
2019-04-05T01:26:42.933Z,38.36
2019-04-05T01:29:09.249Z,38.41
2019-04-05T01:31:35.521Z,39.00
2019-04-05T01:34:02.014Z,38.71
2019-04-05T01:36:28.214Z,39.87
2019-04-05T01:38:54.395Z,40.86
2019-04-05T01:41:20.666Z,39.76
2019-04-05T01:43:46.861Z,39.62
2019-04-05T01:46:13.026Z,38.90
2019-04-05T01:48:39.362Z,40.55
2019-04-05T01:51:05.658Z,39.38
2019-04-05T01:53:31.838Z,39.43
2019-04-05T01:55:58.007Z,38.72
2019-04-05T01:58:24.328Z,37.28
2019-04-05T02:00:50.500Z,37.43
2019-04-05T02:03:16.810Z,38.35
2019-04-05T02:05:43.126Z,38.08
2019-04-05T02:08:09.284Z,37.72
2019-04-05T02:10:36.200Z,38.33
2019-04-05T02:13:02.714Z,39.36
2019-04-05T02:15:32.300Z,40.50
2019-04-05T02:17:58.555Z,39.70
2019-04-05T02:20:25.475Z,39.44
2019-04-05T02:22:51.656Z,39.48
2019-04-05T02:25:17.840Z,39.29
2019-04-05T02:27:44.158Z,39.51
2019-04-05T02:30:10.349Z,41.03
2019-04-05T02:32:36.528Z,40.04
2019-04-05T02:35:07.088Z,39.45
2019-04-05T02:37:33.266Z,39.04
2019-04-05T02:39:59.455Z,39.17
2019-04-05T02:42:25.757Z,39.14
2019-04-05T02:44:52.916Z,39.27
2019-04-05T02:47:20.022Z,40.38
2019-04-05T02:49:46.791Z,39.88
2019-04-05T02:52:16.165Z,40.14
2019-04-05T02:54:43.720Z,39.24
2019-04-05T02:57:10.943Z,40.17
2019-04-05T02:59:38.130Z,39.57
2019-04-05T03:02:05.505Z,37.93
2019-04-05T03:04:32.411Z,40.22
2019-04-05T03:06:59.407Z,38.95
2019-04-05T03:09:26.379Z,39.17
2019-04-05T03:11:53.207Z,40.00
2019-04-05T03:14:19.785Z,39.59
2019-04-05T03:16:48.654Z,39.66
2019-04-05T03:19:18.453Z,40.38
2019-04-05T03:21:48.225Z,39.44
2019-04-05T03:24:18.016Z,39.77
2019-04-05T03:26:47.814Z,40.21
2019-04-05T03:29:13.972Z,40.63
2019-04-05T03:31:40.157Z,40.94
2019-04-05T03:34:06.470Z,40.60
2019-04-05T03:36:32.738Z,39.22
2019-04-05T03:38:58.910Z,39.73
2019-04-05T03:41:25.528Z,39.53
2019-04-05T03:43:51.915Z,38.90
2019-04-05T03:46:18.606Z,39.14
2019-04-05T03:48:45.218Z,39.33
2019-04-05T03:51:11.909Z,38.79
2019-04-05T03:53:38.084Z,37.68
2019-04-05T03:56:04.982Z,37.77
2019-04-05T03:58:31.563Z,38.56
2019-04-05T04:00:57.722Z,38.66
2019-04-05T04:03:24.013Z,39.09
2019-04-05T04:05:50.183Z,39.58
2019-04-05T04:08:16.474Z,39.01
2019-04-05T04:10:44.086Z,41.26
2019-04-05T04:13:10.573Z,40.42
2019-04-05T04:15:36.829Z,41.71
2019-04-05T04:18:03.855Z,40.21
2019-04-05T04:20:39.523Z,39.30
2019-04-05T04:23:06.931Z,38.82
2019-04-05T04:25:34.314Z,36.40
2019-04-05T04:28:00.481Z,36.89
2019-04-05T04:30:27.098Z,35.14
2019-04-05T04:32:54.308Z,33.81
2019-04-05T04:35:20.563Z,32.29
2019-04-05T04:37:46.984Z,32.45
2019-04-05T04:40:14.076Z,31.47
2019-04-05T04:42:40.852Z,34.22
2019-04-05T04:45:12.602Z,31.97
2019-04-05T04:47:35.254Z,30.43
2019-04-05T04:50:02.244Z,29.24
2019-04-05T04:52:31.515Z,28.34
2019-04-05T04:54:57.987Z,27.50
2019-04-05T04:57:24.756Z,26.98
2019-04-05T04:59:51.387Z,26.55
2019-04-05T05:02:17.855Z,26.41
2019-04-05T05:04:44.412Z,26.65
2019-04-05T05:07:10.649Z,24.62
2019-04-05T05:09:37.013Z,29.52
2019-04-05T05:12:03.373Z,29.07
2019-04-05T05:14:29.702Z,26.48
2019-04-05T05:16:55.904Z,25.77
2019-04-05T05:19:22.450Z,23.83
2019-04-05T05:21:48.777Z,23.37
2019-04-05T05:24:15.273Z,22.21
2019-04-05T05:26:41.479Z,21.23
2019-04-05T05:29:07.715Z,20.30
2019-04-05T05:31:33.893Z,19.89
2019-04-05T05:34:00.163Z,22.06
2019-04-05T05:36:26.669Z,20.63
2019-04-05T05:38:53.029Z,21.42
2019-04-05T05:41:19.196Z,22.29
2019-04-05T05:43:46.494Z,22.26
2019-04-05T05:46:12.832Z,23.59
2019-04-05T05:48:39.905Z,22.64
2019-04-05T05:51:06.212Z,23.69
2019-04-05T05:53:33.240Z,24.68
2019-04-05T05:55:59.536Z,24.40
2019-04-05T05:58:26.531Z,23.79
2019-04-05T06:00:54.328Z,22.79
2019-04-05T06:03:20.507Z,21.82
2019-04-05T06:05:46.852Z,21.78
2019-04-05T06:08:13.026Z,22.99
2019-04-05T06:10:39.203Z,25.02
2019-04-05T06:13:07.270Z,26.79
2019-04-05T06:15:33.603Z,24.81
2019-04-05T06:18:04.921Z,25.59
2019-04-05T06:20:30.380Z,25.48
2019-04-05T06:22:56.555Z,24.70
2019-04-05T06:25:22.731Z,25.03
2019-04-05T06:27:49.053Z,27.00
2019-04-05T06:30:17.378Z,28.88
2019-04-05T06:32:43.707Z,26.81
2019-04-05T06:35:10.036Z,26.24
2019-04-05T06:37:37.148Z,27.32
2019-04-05T06:40:05.444Z,27.59
2019-04-05T06:42:31.654Z,25.98
2019-04-05T06:44:57.816Z,27.10
2019-04-05T06:47:23.983Z,26.69
2019-04-05T06:49:50.219Z,27.39
2019-04-05T06:52:16.384Z,26.78
2019-04-05T06:54:42.676Z,26.41
2019-04-05T06:57:08.913Z,27.40
2019-04-05T06:59:35.090Z,27.37
2019-04-05T07:02:01.352Z,26.79
2019-04-05T07:04:31.188Z,26.63
2019-04-05T07:06:57.734Z,27.27
2019-04-05T07:09:23.914Z,26.68
2019-04-05T07:11:50.544Z,27.48
2019-04-05T07:14:16.816Z,27.50
2019-04-05T07:16:43.003Z,26.83
2019-04-05T07:19:09.211Z,26.36
2019-04-05T07:21:35.476Z,25.22
2019-04-05T07:24:01.657Z,24.95
2019-04-05T07:26:27.864Z,26.07
2019-04-05T07:28:54.142Z,26.65
2019-04-05T07:31:20.329Z,25.10
2019-04-05T07:33:46.539Z,25.02
2019-04-05T07:36:12.868Z,24.58
2019-04-05T07:38:39.044Z,24.21
2019-04-05T07:41:05.254Z,24.27
2019-04-05T07:43:31.522Z,23.99
2019-04-05T07:45:58.011Z,23.05
2019-04-05T07:48:24.214Z,22.54
2019-04-05T07:50:50.490Z,22.95
2019-04-05T07:53:16.663Z,22.40
2019-04-05T07:55:42.932Z,24.54
2019-04-05T07:58:12.020Z,23.93
2019-04-05T08:00:53.341Z,23.75
2019-04-05T08:03:32.523Z,25.65
2019-04-05T08:05:54.639Z,24.49
2019-04-05T08:08:24.532Z,23.85
2019-04-05T08:10:50.714Z,22.51
2019-04-05T08:13:17.088Z,23.92
2019-04-05T08:15:43.284Z,24.14
2019-04-05T08:18:09.470Z,22.51
2019-04-05T08:20:35.655Z,22.70
2019-04-05T08:23:01.988Z,24.13
2019-04-05T08:25:28.261Z,22.29
2019-04-05T08:27:54.438Z,22.66
2019-04-05T08:30:20.853Z,23.34
2019-04-05T08:32:47.062Z,24.74
2019-04-05T08:35:13.246Z,24.30
2019-04-05T08:37:39.564Z,24.25
2019-04-05T08:40:05.749Z,23.30
2019-04-05T08:42:32.038Z,24.55
2019-04-05T08:44:58.366Z,22.80
2019-04-05T08:47:24.517Z,23.93
2019-04-05T08:49:50.708Z,22.86
2019-04-05T08:52:17.017Z,22.32
2019-04-05T08:54:43.171Z,22.08
2019-04-05T08:57:09.515Z,23.37
2019-04-05T08:59:35.842Z,22.93
2019-04-05T09:02:02.156Z,23.19
2019-04-05T09:04:28.422Z,24.63
2019-04-05T09:06:54.739Z,23.68
2019-04-05T09:09:20.923Z,24.13
2019-04-05T09:11:47.413Z,24.06
2019-04-05T09:14:13.731Z,23.23
2019-04-05T09:16:39.903Z,24.05
2019-04-05T09:19:06.173Z,22.21
2019-04-05T09:21:32.467Z,22.89
2019-04-05T09:23:59.349Z,22.67
2019-04-05T09:26:25.893Z,21.55
2019-04-05T09:28:52.228Z,21.40
2019-04-05T09:31:18.384Z,21.70
2019-04-05T09:33:44.551Z,21.29
2019-04-05T09:36:10.867Z,21.38
2019-04-05T09:38:37.017Z,20.92
2019-04-05T09:41:03.279Z,22.29
2019-04-05T09:43:29.597Z,21.40
2019-04-05T09:45:55.855Z,20.49
2019-04-05T09:48:22.112Z,19.43
2019-04-05T09:50:48.434Z,20.26
2019-04-05T09:53:14.702Z,19.52
2019-04-05T09:55:40.970Z,20.30
2019-04-05T09:58:10.056Z,20.52
2019-04-05T10:00:36.543Z,20.65
2019-04-05T10:03:02.827Z,19.27
2019-04-05T10:05:29.147Z,19.57
2019-04-05T10:07:55.891Z,18.77
2019-04-05T10:10:22.221Z,19.78
2019-04-05T10:12:48.732Z,20.16
2019-04-05T10:15:15.130Z,20.08
2019-04-05T10:17:41.411Z,20.27
2019-04-05T10:20:07.732Z,20.43
2019-04-05T10:22:34.001Z,20.55
2019-04-05T10:25:00.279Z,19.67
2019-04-05T10:27:26.495Z,20.47
2019-04-05T10:29:52.773Z,21.18
2019-04-05T10:32:18.950Z,20.03
2019-04-05T10:34:45.321Z,20.51
2019-04-05T10:37:11.638Z,20.63
2019-04-05T10:39:37.824Z,20.64
2019-04-05T10:42:07.743Z,18.86
2019-04-05T10:44:34.252Z,19.26
2019-04-05T10:47:00.420Z,18.42
2019-04-05T10:49:26.642Z,20.74
2019-04-05T10:51:52.921Z,20.04
2019-04-05T10:54:19.111Z,18.37
2019-04-05T10:56:45.294Z,18.97
2019-04-05T10:59:11.628Z,20.41
2019-04-05T11:01:37.809Z,20.12
2019-04-05T11:04:04.018Z,19.47
2019-04-05T11:06:30.195Z,20.61
2019-04-05T11:08:56.370Z,20.13
2019-04-05T11:11:22.568Z,17.72
2019-04-05T11:13:48.851Z,18.26
2019-04-05T11:16:15.043Z,20.43
2019-04-05T11:18:41.252Z,20.19
2019-04-05T11:21:07.437Z,20.12
2019-04-05T11:23:33.606Z,17.99
2019-04-05T11:25:59.920Z,19.68
2019-04-05T11:28:26.208Z,18.29
2019-04-05T11:30:52.379Z,19.90
2019-04-05T11:33:19.936Z,19.96
2019-04-05T11:35:46.366Z,19.23
2019-04-05T11:38:13.338Z,19.40
2019-04-05T11:40:40.055Z,18.47
2019-04-05T11:43:06.339Z,19.07
2019-04-05T11:45:33.403Z,19.18
2019-04-05T11:48:02.316Z,17.26
2019-04-05T11:50:34.303Z,16.87
2019-04-05T11:52:56.775Z,17.65
2019-04-05T11:55:23.094Z,19.09
2019-04-05T11:57:49.252Z,19.27
2019-04-05T12:00:20.550Z,17.83
2019-04-05T12:02:48.662Z,18.26
2019-04-05T12:05:16.751Z,17.84
2019-04-05T12:07:42.904Z,18.95
2019-04-05T12:10:09.533Z,18.61
2019-04-05T12:12:35.786Z,18.76
2019-04-05T12:15:06.203Z,17.34
2019-04-05T12:17:31.464Z,17.42
2019-04-05T12:19:57.625Z,18.39
2019-04-05T12:22:23.806Z,18.70
2019-04-05T12:24:50.025Z,18.47
2019-04-05T12:27:20.830Z,17.39
2019-04-05T12:29:58.719Z,18.67
2019-04-05T12:32:33.433Z,19.02
2019-04-05T12:34:54.911Z,19.65
2019-04-05T12:37:22.126Z,19.05
2019-04-05T12:39:48.804Z,19.22
2019-04-05T12:42:14.972Z,19.68
2019-04-05T12:44:44.621Z,19.26
2019-04-05T12:47:09.856Z,19.32
2019-04-05T12:49:36.011Z,18.58
2019-04-05T12:52:02.230Z,18.84
2019-04-05T12:54:28.405Z,17.29
2019-04-05T12:56:57.875Z,17.39
2019-04-05T12:59:25.194Z,19.07
2019-04-05T13:01:50.833Z,17.64
2019-04-05T13:04:20.389Z,19.19
2019-04-05T13:06:45.121Z,18.55
2019-04-05T13:09:12.795Z,19.33
2019-04-05T13:11:38.956Z,19.05
2019-04-05T13:14:05.503Z,18.28
2019-04-05T13:16:31.689Z,17.68
2019-04-05T13:19:00.434Z,17.50
2019-04-05T13:21:27.605Z,16.95
2019-04-05T13:23:54.024Z,17.05
2019-04-05T13:26:20.197Z,16.97
2019-04-05T13:28:48.452Z,18.04
2019-04-05T13:31:18.107Z,16.32
2019-04-05T13:33:42.564Z,17.92
2019-04-05T13:36:08.884Z,16.30
2019-04-05T13:38:35.024Z,17.30
2019-04-05T13:41:02.065Z,18.38
2019-04-05T13:43:29.815Z,18.11
2019-04-05T13:45:56.716Z,17.03
2019-04-05T13:48:23.006Z,17.05
2019-04-05T13:50:49.248Z,16.98
2019-04-05T13:53:15.399Z,18.97
2019-04-05T13:55:41.546Z,18.06
2019-04-05T13:58:10.727Z,18.41
2019-04-05T14:00:35.906Z,18.34
2019-04-05T14:03:02.215Z,17.55
2019-04-05T14:05:28.562Z,18.02
2019-04-05T14:08:09.097Z,18.81
2019-04-05T14:10:23.004Z,18.97
2019-04-05T14:12:49.251Z,18.71
2019-04-05T14:15:15.408Z,18.34
2019-04-05T14:17:44.300Z,18.94
2019-04-05T14:20:10.567Z,19.61
2019-04-05T14:22:36.743Z,18.07
2019-04-05T14:25:05.731Z,19.05
2019-04-05T14:27:34.914Z,17.88
2019-04-05T14:30:00.544Z,20.03
2019-04-05T14:32:28.204Z,19.07
2019-04-05T14:34:54.956Z,20.46
2019-04-05T14:37:24.838Z,19.39
2019-04-05T14:39:49.355Z,20.73
2019-04-05T14:42:15.802Z,20.60
2019-04-05T14:44:42.041Z,19.56
2019-04-05T14:47:08.321Z,19.63
2019-04-05T14:49:34.658Z,21.11
2019-04-05T14:52:01.800Z,19.91
2019-04-05T14:54:30.112Z,19.64
2019-04-05T14:56:57.490Z,19.32
2019-04-05T14:59:23.919Z,20.66
2019-04-05T15:01:50.214Z,21.78
2019-04-05T15:04:16.469Z,21.15
2019-04-05T15:06:42.717Z,20.34
2019-04-05T15:09:08.896Z,19.76
2019-04-05T15:11:35.192Z,22.09
2019-04-05T15:14:01.480Z,21.03
2019-04-05T15:16:27.648Z,20.83
2019-04-05T15:18:53.864Z,21.47
2019-04-05T15:21:20.018Z,21.56
2019-04-05T15:23:46.383Z,20.43
2019-04-05T15:26:12.920Z,22.41
2019-04-05T15:28:39.238Z,21.94
2019-04-05T15:31:05.381Z,22.02
2019-04-05T15:33:31.609Z,21.63
2019-04-05T15:36:00.265Z,23.34
2019-04-05T15:38:25.836Z,22.48
2019-04-05T15:40:52.167Z,22.44
2019-04-05T15:43:18.423Z,23.62
2019-04-05T15:45:44.616Z,22.56
2019-04-05T15:48:10.800Z,23.62
2019-04-05T15:50:36.984Z,22.59
2019-04-05T15:53:03.455Z,23.29
2019-04-05T15:55:33.365Z,22.34
2019-04-05T15:57:57.978Z,23.51
2019-04-05T16:00:48.899Z,23.14
2019-04-05T16:03:15.256Z,21.22
2019-04-05T16:05:42.767Z,22.56
2019-04-05T16:08:09.074Z,22.81
2019-04-05T16:10:35.466Z,23.32
2019-04-05T16:13:01.642Z,23.01
2019-04-05T16:15:27.866Z,23.09
2019-04-05T16:17:54.042Z,24.36
2019-04-05T16:20:20.198Z,24.63
2019-04-05T16:22:49.558Z,23.98
2019-04-05T16:25:15.757Z,23.66
2019-04-05T16:27:41.941Z,24.83
2019-04-05T16:30:08.529Z,24.50
2019-04-05T16:32:34.733Z,24.78
2019-04-05T16:35:00.892Z,24.51
2019-04-05T16:37:27.112Z,24.02
2019-04-05T16:39:53.365Z,23.93
2019-04-05T16:42:19.625Z,23.29
2019-04-05T16:44:45.840Z,24.78
2019-04-05T16:47:11.994Z,24.36
2019-04-05T16:49:38.173Z,23.18
2019-04-05T16:52:04.373Z,23.75
2019-04-05T16:54:30.648Z,22.93
2019-04-05T16:56:56.915Z,22.86
2019-04-05T16:59:23.128Z,22.52
2019-04-05T17:01:49.305Z,22.56
2019-04-05T17:04:15.468Z,22.84
2019-04-05T17:06:41.673Z,22.47
2019-04-05T17:09:08.634Z,22.62
2019-04-05T17:11:35.116Z,23.22
2019-04-05T17:14:01.308Z,23.02
2019-04-05T17:16:27.481Z,22.97
2019-04-05T17:18:53.668Z,23.11
2019-04-05T17:21:19.889Z,23.47
2019-04-05T17:23:46.149Z,23.42
2019-04-05T17:26:12.419Z,23.24
2019-04-05T17:28:38.627Z,23.88
2019-04-05T17:31:04.895Z,24.16
2019-04-05T17:33:31.065Z,23.84
2019-04-05T17:35:57.282Z,24.56
2019-04-05T17:38:23.453Z,24.35
2019-04-05T17:40:49.704Z,24.79
2019-04-05T17:43:17.012Z,24.90
2019-04-05T17:45:43.294Z,25.26
2019-04-05T17:48:09.466Z,26.28
2019-04-05T17:50:35.681Z,26.18
2019-04-05T17:53:12.279Z,26.27
2019-04-05T17:55:29.913Z,26.29
2019-04-05T17:57:57.866Z,26.44
2019-04-05T18:00:25.229Z,26.47
2019-04-05T18:02:51.411Z,26.38
2019-04-05T18:05:17.623Z,26.62
2019-04-05T18:07:43.853Z,25.89
2019-04-05T18:10:10.230Z,25.76
2019-04-05T18:12:36.552Z,26.01
2019-04-05T18:15:03.422Z,27.53
2019-04-05T18:17:29.596Z,27.10
2019-04-05T18:19:55.911Z,26.82
2019-04-05T18:22:22.077Z,27.35
2019-04-05T18:24:48.267Z,27.82
2019-04-05T18:27:14.486Z,26.89
2019-04-05T18:29:40.765Z,26.76
2019-04-05T18:32:06.939Z,26.77
2019-04-05T18:34:33.130Z,26.61
2019-04-05T18:36:59.296Z,26.21
2019-04-05T18:39:25.472Z,26.66
2019-04-05T18:41:51.687Z,26.68
2019-04-05T18:44:17.843Z,26.74
2019-04-05T18:46:44.029Z,26.63
2019-04-05T18:49:10.338Z,26.49
2019-04-05T18:51:36.639Z,28.51
2019-04-05T18:54:03.001Z,26.78
2019-04-05T18:56:29.204Z,27.09
2019-04-05T18:58:55.482Z,27.32
2019-04-05T19:01:21.784Z,27.59
2019-04-05T19:03:48.087Z,27.59
2019-04-05T19:06:14.347Z,28.61
2019-04-05T19:08:40.732Z,28.87
2019-04-05T19:11:07.047Z,29.69
2019-04-05T19:13:33.241Z,29.49
2019-04-05T19:15:59.407Z,29.79
2019-04-05T19:18:25.631Z,29.16
2019-04-05T19:20:51.905Z,28.63
2019-04-05T19:23:18.181Z,29.15
2019-04-05T19:25:46.572Z,28.88
2019-04-05T19:28:12.490Z,28.99
2019-04-05T19:50:24.122Z,31.61
2019-04-05T19:52:50.409Z,31.48
2019-04-05T19:55:16.706Z,31.06
2019-04-05T19:57:42.986Z,31.46
2019-04-05T20:00:09.267Z,31.45
2019-04-05T20:02:35.473Z,31.96
2019-04-05T20:05:01.767Z,32.35
2019-04-05T20:07:27.927Z,32.38
2019-04-05T20:09:54.231Z,31.89
2019-04-05T20:12:20.419Z,31.74
2019-04-05T20:14:46.704Z,32.69
2019-04-05T20:17:13.045Z,31.50
2019-04-05T20:19:39.246Z,31.66
2019-04-05T20:22:05.513Z,31.92
2019-04-05T20:24:31.816Z,32.02
2019-04-05T20:26:58.015Z,32.23
2019-04-05T20:29:24.291Z,32.32
2019-04-05T20:31:50.605Z,32.53
2019-04-05T20:34:16.773Z,32.86
2019-04-05T20:36:42.966Z,33.70
2019-04-05T20:39:09.193Z,33.41
2019-04-05T20:41:35.367Z,34.07
2019-04-05T20:44:01.628Z,34.73
2019-04-05T20:46:27.940Z,35.13
2019-04-05T20:48:54.208Z,34.88
2019-04-05T20:51:20.398Z,34.58
2019-04-05T20:53:46.596Z,34.18
2019-04-05T20:56:12.780Z,34.20
2019-04-05T20:58:39.036Z,33.57
2019-04-05T21:01:06.534Z,33.32
2019-04-05T21:03:32.731Z,33.58
2019-04-05T21:05:59.007Z,32.70
2019-04-05T21:08:25.288Z,32.38
2019-04-05T21:10:51.520Z,33.17
2019-04-05T21:13:17.799Z,33.14
2019-04-05T21:15:44.105Z,32.88
2019-04-05T21:18:10.387Z,32.91
2019-04-05T21:20:36.576Z,32.99
2019-04-05T21:23:02.815Z,33.23
2019-04-05T21:25:28.988Z,33.49
2019-04-05T21:27:55.295Z,33.52
2019-04-05T21:30:21.595Z,33.85
2019-04-05T21:32:47.768Z,33.68
2019-04-05T21:35:13.952Z,33.92
2019-04-05T21:37:40.166Z,34.02
2019-04-05T21:40:06.788Z,33.66
2019-04-05T21:42:32.926Z,33.31
2019-04-05T21:44:59.243Z,33.31
2019-04-05T21:47:25.411Z,33.99
2019-04-05T21:49:51.591Z,33.71
2019-04-05T21:52:17.934Z,34.16
2019-04-05T21:54:47.766Z,34.31
2019-04-05T21:57:12.311Z,33.63
2019-04-05T21:59:38.548Z,34.82
2019-04-05T22:02:05.518Z,34.93
2019-04-05T22:04:31.698Z,34.70
2019-04-05T22:06:57.901Z,35.31
2019-04-05T22:09:24.095Z,35.64
2019-04-05T22:11:50.299Z,35.17
2019-04-05T22:14:16.493Z,35.47
2019-04-05T22:16:42.808Z,36.14
2019-04-05T22:19:08.979Z,37.27
2019-04-05T22:21:35.308Z,36.57
2019-04-05T22:24:01.460Z,36.70
2019-04-05T22:26:27.639Z,36.90
2019-04-05T22:28:53.836Z,37.96
2019-04-05T22:31:20.013Z,38.05
2019-04-05T22:33:46.195Z,37.81
2019-04-05T22:36:12.386Z,37.16
2019-04-05T22:38:38.568Z,37.13
2019-04-05T22:41:04.737Z,35.88
2019-04-05T22:43:30.942Z,35.24
2019-04-05T22:45:57.106Z,35.87
2019-04-05T22:48:23.289Z,35.77
2019-04-05T22:50:49.510Z,36.25
2019-04-05T22:53:15.671Z,37.78
2019-04-05T22:55:41.861Z,37.08
2019-04-05T22:58:08.070Z,37.95
2019-04-05T23:00:34.472Z,38.26
2019-04-05T23:03:00.639Z,37.76
2019-04-05T23:05:26.858Z,37.52
2019-04-05T23:07:53.032Z,37.62
2019-04-05T23:10:19.216Z,37.42
2019-04-05T23:12:46.489Z,37.35
2019-04-05T23:15:12.947Z,37.89
2019-04-05T23:17:39.131Z,37.82
2019-04-05T23:20:06.449Z,36.98
2019-04-05T23:22:32.733Z,36.79
2019-04-05T23:24:58.922Z,36.71
2019-04-05T23:27:25.132Z,37.87
2019-04-05T23:29:51.312Z,38.49
2019-04-05T23:32:17.476Z,38.53
2019-04-05T23:34:43.805Z,37.82
2019-04-05T23:37:09.978Z,37.45
2019-04-05T23:39:36.146Z,38.27
2019-04-05T23:42:02.345Z,37.85
2019-04-05T23:44:28.521Z,38.33
2019-04-05T23:46:54.811Z,37.90
2019-04-05T23:49:21.022Z,38.41
2019-04-05T23:51:47.190Z,39.17
2019-04-05T23:54:13.383Z,39.12
2019-04-05T23:56:39.609Z,39.30
2019-04-05T23:59:05.772Z,40.22
